createdAt,value
2023-03-26T00:00:23.605Z,1.60
2023-03-26T00:03:26.103Z,1.60
2023-03-26T00:06:29.910Z,1.77
2023-03-26T00:09:31.556Z,2.00
2023-03-26T00:12:33.148Z,1.40
2023-03-26T00:15:36.856Z,1.77
2023-03-26T00:18:40.275Z,2.23
2023-03-26T00:21:42.164Z,1.80
2023-03-26T00:24:45.904Z,1.50
2023-03-26T00:27:49.445Z,2.27
2023-03-26T00:30:58.265Z,1.90
2023-03-26T00:34:05.763Z,1.90
2023-03-26T00:37:08.793Z,1.80
2023-03-26T00:40:10.991Z,1.77
2023-03-26T00:43:19.066Z,2.13
2023-03-26T00:46:21.095Z,2.30
2023-03-26T00:49:22.725Z,1.67
2023-03-26T00:52:24.532Z,1.87
2023-03-26T00:55:26.136Z,2.23
2023-03-26T00:58:27.914Z,2.70
2023-03-26T01:04:38.116Z,2.40
2023-03-26T01:07:39.795Z,1.80
2023-03-26T01:10:43.274Z,2.30
2023-03-26T01:13:50.664Z,1.97
2023-03-26T01:17:04.000Z,1.93
2023-03-26T01:20:19.176Z,2.17
2023-03-26T01:23:24.512Z,1.63
2023-03-26T01:26:43.525Z,1.83
2023-03-26T01:29:57.258Z,2.13
2023-03-26T01:33:01.797Z,1.30
2023-03-26T01:36:18.794Z,1.43
2023-03-26T01:39:40.532Z,1.67
2023-03-26T01:42:54.482Z,1.83
2023-03-26T01:45:58.792Z,2.33
2023-03-26T01:49:00.551Z,2.30
2023-03-26T01:52:02.242Z,1.80
2023-03-26T01:55:04.897Z,1.73
2023-03-26T01:58:21.153Z,2.10
2023-03-26T02:01:30.311Z,2.00
2023-03-26T02:04:53.089Z,2.00
2023-03-26T02:08:05.792Z,1.70
2023-03-26T02:11:14.301Z,1.80
2023-03-26T02:14:16.644Z,1.87
2023-03-26T02:17:19.101Z,1.80
2023-03-26T02:20:21.416Z,2.10
2023-03-26T02:23:23.012Z,2.13
2023-03-26T02:26:25.150Z,2.23
2023-03-26T02:29:27.580Z,2.07
2023-03-26T02:32:29.355Z,2.07
2023-03-26T02:35:31.301Z,2.07
2023-03-26T02:38:35.076Z,2.17
2023-03-26T02:41:38.259Z,2.27
2023-03-26T02:44:40.200Z,1.97
2023-03-26T02:47:43.290Z,1.80
2023-03-26T02:50:46.036Z,2.20
2023-03-26T02:53:47.809Z,2.03
2023-03-26T02:56:49.434Z,2.50
2023-03-26T02:59:52.688Z,2.53
2023-03-26T03:02:54.432Z,1.90
2023-03-26T03:05:57.407Z,2.23
2023-03-26T03:08:59.212Z,2.27
2023-03-26T03:12:00.994Z,2.20
2023-03-26T03:15:03.502Z,2.23
2023-03-26T03:18:05.299Z,1.87
2023-03-26T03:21:07.065Z,2.90
2023-03-26T03:24:11.551Z,3.13
2023-03-26T03:27:13.673Z,2.07
2023-03-26T03:30:15.264Z,2.40
2023-03-26T03:33:19.162Z,2.10
2023-03-26T03:36:22.572Z,3.03
2023-03-26T03:39:24.247Z,2.33
2023-03-26T03:42:27.729Z,2.10
2023-03-26T03:45:29.335Z,2.33
2023-03-26T03:48:30.956Z,3.23
2023-03-26T03:51:32.676Z,1.97
2023-03-26T03:54:34.485Z,1.90
2023-03-26T03:57:36.332Z,2.30
2023-03-26T04:00:38.292Z,2.00
2023-03-26T04:03:40.326Z,2.27
2023-03-26T04:06:42.112Z,2.30
2023-03-26T04:09:43.681Z,2.30
2023-03-26T04:12:45.566Z,2.50
2023-03-26T04:15:47.264Z,1.87
2023-03-26T04:18:48.962Z,2.00
2023-03-26T04:21:50.575Z,2.83
2023-03-26T04:24:54.250Z,2.67
2023-03-26T04:27:58.245Z,2.47
2023-03-26T04:31:03.572Z,3.77
2023-03-26T04:34:14.558Z,2.30
2023-03-26T04:37:34.252Z,2.50
2023-03-26T04:40:36.027Z,1.83
2023-03-26T04:43:42.187Z,2.53
2023-03-26T04:46:44.960Z,2.40
2023-03-26T04:49:48.280Z,2.80
2023-03-26T04:52:50.458Z,3.00
2023-03-26T04:55:59.647Z,2.57
2023-03-26T04:59:02.234Z,2.23
2023-03-26T05:02:05.978Z,2.73
2023-03-26T05:05:08.361Z,2.70
2023-03-26T05:08:10.049Z,2.20
2023-03-26T05:11:11.798Z,2.30
2023-03-26T05:14:13.497Z,2.27
2023-03-26T05:17:18.788Z,2.73
2023-03-26T05:20:26.594Z,3.00
2023-03-26T05:23:28.183Z,2.40
2023-03-26T05:26:29.896Z,2.23
2023-03-26T05:29:31.802Z,2.10
2023-03-26T05:32:34.577Z,2.27
2023-03-26T05:35:36.552Z,2.27
2023-03-26T05:38:38.231Z,2.13
2023-03-26T05:41:39.913Z,2.50
2023-03-26T05:44:41.476Z,2.50
2023-03-26T05:47:43.315Z,2.87
2023-03-26T05:50:47.263Z,3.03
2023-03-26T05:53:48.967Z,2.60
2023-03-26T05:56:50.700Z,3.17
2023-03-26T05:59:52.504Z,1.90
2023-03-26T06:02:56.675Z,2.83
2023-03-26T06:05:59.322Z,2.47
2023-03-26T06:09:02.947Z,2.00
2023-03-26T06:12:06.251Z,2.40
2023-03-26T06:15:08.710Z,3.10
2023-03-26T06:18:10.492Z,2.40
2023-03-26T06:21:12.176Z,3.30
2023-03-26T06:24:13.869Z,2.47
2023-03-26T06:27:15.686Z,2.50
2023-03-26T06:30:17.281Z,3.60
2023-03-26T06:33:19.152Z,2.93
2023-03-26T06:36:20.936Z,3.00
2023-03-26T06:39:22.568Z,7.93
2023-03-26T06:42:31.997Z,3.07
2023-03-26T06:45:49.713Z,3.53
2023-03-26T06:48:52.033Z,2.90
2023-03-26T06:51:53.606Z,2.60
2023-03-26T06:54:55.170Z,3.00
2023-03-26T06:57:58.110Z,3.40
2023-03-26T07:00:59.865Z,3.70
2023-03-26T07:04:01.584Z,3.90
2023-03-26T07:07:03.314Z,3.73
2023-03-26T07:10:07.345Z,11.30
2023-03-26T07:13:09.049Z,4.80
2023-03-26T07:16:10.847Z,3.20
2023-03-26T07:19:12.461Z,4.23
2023-03-26T07:22:19.838Z,3.37
2023-03-26T07:25:21.777Z,5.00
2023-03-26T07:29:03.699Z,3.07
2023-03-26T07:32:13.088Z,3.37
2023-03-26T07:35:27.602Z,3.83
2023-03-26T07:39:09.409Z,2.77
2023-03-26T07:42:23.193Z,3.57
2023-03-26T07:45:40.734Z,4.33
2023-03-26T07:48:44.753Z,6.93
2023-03-26T07:51:47.600Z,4.27
2023-03-26T07:54:49.591Z,3.30
2023-03-26T07:58:40.407Z,4.43
2023-03-26T08:02:01.627Z,4.93
2023-03-26T08:05:19.602Z,4.70
2023-03-26T08:08:36.275Z,4.03
2023-03-26T08:11:40.782Z,3.80
2023-03-26T08:14:57.456Z,3.40
2023-03-26T08:18:27.278Z,2.90
2023-03-26T08:21:37.991Z,3.60
2023-03-26T08:25:01.282Z,3.57
2023-03-26T08:28:27.906Z,2.80
2023-03-26T08:31:41.254Z,2.70
2023-03-26T08:34:42.974Z,3.30
2023-03-26T08:37:45.219Z,3.20
2023-03-26T08:41:04.623Z,3.20
2023-03-26T08:44:34.666Z,3.57
2023-03-26T08:48:16.946Z,3.10
2023-03-26T08:51:18.527Z,5.33
2023-03-26T08:54:41.188Z,3.13
2023-03-26T08:58:22.034Z,3.47
2023-03-26T09:02:06.743Z,3.20
2023-03-26T09:05:36.155Z,3.40
2023-03-26T09:09:19.015Z,4.20
2023-03-26T09:12:50.288Z,3.30
2023-03-26T09:16:17.910Z,3.30
2023-03-26T09:19:40.777Z,3.60
2023-03-26T09:23:13.390Z,2.57
2023-03-26T09:26:51.405Z,2.73
2023-03-26T09:30:20.320Z,3.10
2023-03-26T09:33:31.253Z,3.03
2023-03-26T09:36:54.025Z,2.80
2023-03-26T09:40:09.997Z,2.20
2023-03-26T09:43:48.661Z,2.90
2023-03-26T09:47:09.008Z,2.20
2023-03-26T09:50:35.117Z,2.47
2023-03-26T09:53:57.169Z,2.50
2023-03-26T09:57:23.598Z,2.27
2023-03-26T10:01:05.583Z,2.27
2023-03-26T10:04:27.190Z,2.20
2023-03-26T10:07:49.301Z,2.10
2023-03-26T10:10:57.180Z,1.90
2023-03-26T10:14:32.480Z,1.93
2023-03-26T10:17:55.588Z,1.70
2023-03-26T10:21:18.059Z,2.00
2023-03-26T10:24:36.367Z,2.30
2023-03-26T10:27:44.457Z,2.07
2023-03-26T10:31:06.207Z,2.70
2023-03-26T10:34:44.473Z,1.97
2023-03-26T10:38:10.900Z,1.90
2023-03-26T10:41:35.135Z,1.90
2023-03-26T10:44:48.591Z,1.50
2023-03-26T10:48:30.604Z,1.80
2023-03-26T10:51:50.337Z,1.57
2023-03-26T10:54:54.823Z,2.20
2023-03-26T10:58:11.546Z,1.53
2023-03-26T11:01:25.882Z,1.77
2023-03-26T11:05:01.790Z,1.63
2023-03-26T11:08:09.029Z,2.10
2023-03-26T11:11:42.142Z,2.57
2023-03-26T11:15:00.990Z,1.80
2023-03-26T11:18:28.275Z,1.77
2023-03-26T11:21:57.216Z,2.30
2023-03-26T11:25:22.143Z,1.93
2023-03-26T11:28:26.556Z,1.70
2023-03-26T11:31:55.606Z,2.83
2023-03-26T11:35:05.675Z,1.80
2023-03-26T11:38:43.508Z,2.10
2023-03-26T11:41:46.237Z,1.90
2023-03-26T11:45:00.585Z,2.50
2023-03-26T11:48:10.579Z,2.10
2023-03-26T11:51:20.160Z,2.30
2023-03-26T11:54:22.369Z,2.30
2023-03-26T11:57:36.281Z,2.47
2023-03-26T12:00:40.737Z,2.20
2023-03-26T12:04:05.218Z,1.63
2023-03-26T12:07:09.572Z,1.70
2023-03-26T12:10:37.547Z,1.60
2023-03-26T12:13:50.564Z,0.77
2023-03-26T12:16:59.251Z,1.00
2023-03-26T12:20:02.038Z,0.67
2023-03-26T12:23:06.400Z,0.70
2023-03-26T12:26:15.560Z,0.70
2023-03-26T12:29:18.965Z,0.50
2023-03-26T12:32:22.541Z,0.90
2023-03-26T12:35:30.070Z,0.70
2023-03-26T12:38:34.590Z,0.93
2023-03-26T12:43:40.558Z,0.70
2023-03-26T12:45:02.403Z,0.90
2023-03-26T12:48:05.314Z,0.80
2023-03-26T12:51:34.642Z,1.00
2023-03-26T12:54:36.161Z,0.93
2023-03-26T12:58:00.709Z,1.10
2023-03-26T13:01:47.774Z,0.70
2023-03-26T13:05:19.405Z,0.80
2023-03-26T13:08:44.606Z,1.20
2023-03-26T13:11:56.606Z,0.60
2023-03-26T13:15:17.604Z,0.80
2023-03-26T13:18:48.717Z,0.80
2023-03-26T13:21:51.772Z,1.17
2023-03-26T13:25:24.121Z,0.93
2023-03-26T13:28:49.700Z,1.03
2023-03-26T13:32:08.067Z,1.10
2023-03-26T13:35:41.464Z,0.80
2023-03-26T13:39:09.375Z,0.93
2023-03-26T13:42:36.587Z,1.07
2023-03-26T13:46:01.395Z,0.90
2023-03-26T13:49:19.096Z,1.00
2023-03-26T13:52:34.828Z,1.10
2023-03-26T13:55:44.926Z,1.00
2023-03-26T13:58:47.286Z,1.20
2023-03-26T14:01:54.747Z,1.10
2023-03-26T14:05:17.281Z,1.50
2023-03-26T14:08:25.676Z,1.10
2023-03-26T14:11:52.814Z,1.27
2023-03-26T14:14:58.811Z,1.33
2023-03-26T14:18:06.523Z,1.13
2023-03-26T14:21:37.959Z,1.00
2023-03-26T14:25:21.991Z,1.30
2023-03-26T14:28:51.921Z,1.23
2023-03-26T14:32:16.412Z,1.10
2023-03-26T14:35:37.402Z,1.07
2023-03-26T14:39:10.668Z,1.13
2023-03-26T14:42:29.736Z,1.17
2023-03-26T14:45:56.484Z,1.10
2023-03-26T14:49:46.139Z,1.43
2023-03-26T14:53:00.931Z,0.93
2023-03-26T14:56:31.340Z,1.40
2023-03-26T15:00:16.155Z,1.30
2023-03-26T15:04:10.832Z,1.43
2023-03-26T15:07:40.969Z,3.50
2023-03-26T15:10:54.259Z,2.67
2023-03-26T15:14:10.929Z,1.43
2023-03-26T15:18:01.289Z,1.33
2023-03-26T15:21:22.890Z,1.70
2023-03-26T15:24:29.961Z,1.40
2023-03-26T15:28:08.225Z,1.60
2023-03-26T15:31:47.392Z,1.80
2023-03-26T15:35:02.358Z,1.37
2023-03-26T15:38:22.215Z,1.27
2023-03-26T15:41:42.274Z,1.40
2023-03-26T15:45:17.940Z,1.53
2023-03-26T15:48:34.230Z,1.67
2023-03-26T15:52:02.700Z,1.10
2023-03-26T15:55:16.609Z,2.10
2023-03-26T15:58:25.955Z,1.60
2023-03-26T16:01:39.385Z,0.70
2023-03-26T16:05:06.312Z,0.57
2023-03-26T16:08:18.528Z,0.80
2023-03-26T16:11:47.503Z,0.63
2023-03-26T16:15:18.083Z,0.70
2023-03-26T16:18:33.853Z,0.60
2023-03-26T16:21:45.682Z,0.70
2023-03-26T16:25:30.440Z,0.70
2023-03-26T16:28:35.115Z,0.60
2023-03-26T16:31:39.263Z,0.70
2023-03-26T16:34:59.462Z,0.67
2023-03-26T16:38:13.974Z,0.50
2023-03-26T16:41:21.917Z,0.67
2023-03-26T16:44:31.480Z,1.07
2023-03-26T16:47:42.830Z,1.67
2023-03-26T16:50:53.478Z,2.60
2023-03-26T16:54:07.381Z,1.23
2023-03-26T16:57:36.824Z,1.90
2023-03-26T17:00:49.337Z,1.30
2023-03-26T17:03:59.742Z,1.37
2023-03-26T17:07:15.905Z,1.27
2023-03-26T17:10:33.293Z,0.70
2023-03-26T17:14:03.098Z,0.80
2023-03-26T17:17:23.595Z,0.90
2023-03-26T17:20:37.891Z,1.60
2023-03-26T17:23:42.675Z,1.10
2023-03-26T17:27:13.805Z,1.40
2023-03-26T17:30:41.418Z,1.60
2023-03-26T17:33:45.790Z,0.80
2023-03-26T17:36:56.913Z,0.90
2023-03-26T17:43:59.878Z,1.20
2023-03-26T17:47:13.236Z,2.40
2023-03-26T17:50:20.178Z,1.83
2023-03-26T17:53:32.258Z,1.40
2023-03-26T17:56:37.913Z,0.70
2023-03-26T17:59:49.773Z,0.70
2023-03-26T18:03:16.579Z,0.80
2023-03-26T18:06:48.978Z,0.80
2023-03-26T18:10:04.910Z,0.80
2023-03-26T18:13:09.677Z,1.27
2023-03-26T18:16:21.206Z,1.00
2023-03-26T18:19:23.371Z,1.20
2023-03-26T18:22:30.444Z,1.00
2023-03-26T18:25:34.183Z,0.70
2023-03-26T18:28:41.872Z,1.30
2023-03-26T18:31:45.610Z,0.97
2023-03-26T18:34:57.051Z,0.70
2023-03-26T18:37:59.935Z,0.80
2023-03-26T18:41:08.646Z,0.80
2023-03-26T18:44:17.101Z,0.80
2023-03-26T18:47:23.919Z,0.90
2023-03-26T18:50:37.111Z,0.90
2023-03-26T18:53:46.685Z,1.20
2023-03-26T18:56:54.355Z,0.97
2023-03-26T19:00:10.217Z,0.80
2023-03-26T19:03:18.211Z,0.90
2023-03-26T19:06:28.983Z,1.10
2023-03-26T19:09:32.519Z,1.57
2023-03-26T19:12:35.641Z,1.17
2023-03-26T19:15:39.564Z,1.10
2023-03-26T19:18:43.918Z,2.47
2023-03-26T19:21:50.613Z,1.93
2023-03-26T19:25:02.237Z,1.60
2023-03-26T19:28:09.552Z,1.90
2023-03-26T19:31:26.087Z,1.10
2023-03-26T19:34:39.198Z,0.80
2023-03-26T19:37:54.155Z,0.97
2023-03-26T19:40:57.945Z,0.90
2023-03-26T19:44:02.672Z,1.10
2023-03-26T19:47:18.084Z,1.00
2023-03-26T19:50:30.669Z,1.10
2023-03-26T19:53:44.105Z,1.40
2023-03-26T19:56:53.918Z,1.10
2023-03-26T19:59:55.969Z,1.10
2023-03-26T20:02:58.530Z,1.00
2023-03-26T20:06:00.236Z,1.10
2023-03-26T20:09:04.249Z,1.30
2023-03-26T20:12:06.321Z,0.80
2023-03-26T20:15:22.206Z,1.40
2023-03-26T20:18:31.792Z,0.90
2023-03-26T20:21:34.744Z,0.80
2023-03-26T20:24:36.527Z,1.00
2023-03-26T20:27:38.262Z,1.00
2023-03-26T20:30:40.474Z,0.87
2023-03-26T20:33:43.420Z,1.00
2023-03-26T20:36:46.205Z,1.00
2023-03-26T20:39:48.046Z,0.90
2023-03-26T20:42:49.797Z,1.30
2023-03-26T20:45:51.995Z,0.90
2023-03-26T20:48:55.434Z,2.30
2023-03-26T20:51:59.571Z,0.80
2023-03-26T20:55:01.148Z,0.80
2023-03-26T20:58:04.118Z,1.20
2023-03-26T21:01:06.773Z,1.00
2023-03-26T21:04:08.511Z,1.27
2023-03-26T21:07:17.635Z,5.77
2023-03-26T21:10:21.217Z,3.63
2023-03-26T21:13:45.100Z,2.83
2023-03-26T21:16:47.189Z,2.70
2023-03-26T21:19:49.623Z,3.17
2023-03-26T21:23:11.419Z,3.53
2023-03-26T21:26:31.632Z,3.83
2023-03-26T21:29:33.397Z,3.23
2023-03-26T21:32:36.635Z,3.10
2023-03-26T21:35:38.925Z,1.97
2023-03-26T21:38:43.476Z,2.10
2023-03-26T21:41:48.987Z,2.27
2023-03-26T21:45:08.013Z,2.27
2023-03-26T21:48:10.481Z,1.83
2023-03-26T21:51:14.727Z,1.70
2023-03-26T21:54:24.090Z,1.57
2023-03-26T21:57:51.256Z,1.00
2023-03-26T22:00:53.155Z,0.80
2023-03-26T22:04:19.372Z,1.10
2023-03-26T22:07:46.368Z,0.70
2023-03-26T22:10:48.004Z,0.90
2023-03-26T22:13:49.568Z,0.80
2023-03-26T22:16:51.219Z,1.00
2023-03-26T22:19:53.017Z,0.87
2023-03-26T22:22:55.144Z,0.70
2023-03-26T22:25:57.577Z,0.80
2023-03-26T22:28:59.380Z,0.87
2023-03-26T22:32:01.072Z,0.90
2023-03-26T22:35:04.044Z,1.10
2023-03-26T22:38:05.729Z,1.30
2023-03-26T22:41:07.637Z,0.70
2023-03-26T22:44:19.596Z,1.00
2023-03-26T22:47:21.813Z,1.03
2023-03-26T22:50:24.285Z,1.27
2023-03-26T22:53:25.988Z,0.80
2023-03-26T22:56:27.686Z,1.10
2023-03-26T22:59:29.767Z,1.10
2023-03-26T23:02:31.510Z,0.87
2023-03-26T23:05:33.721Z,1.00
2023-03-26T23:08:37.880Z,1.27
2023-03-26T23:11:39.647Z,1.07
2023-03-26T23:14:41.428Z,1.30
2023-03-26T23:17:43.089Z,1.13
2023-03-26T23:20:52.834Z,1.33
2023-03-26T23:23:54.478Z,1.37
2023-03-26T23:26:56.144Z,1.53
2023-03-26T23:29:57.919Z,1.20
2023-03-26T23:32:59.528Z,1.30
2023-03-26T23:36:04.106Z,1.53
2023-03-26T23:39:09.306Z,1.50
2023-03-26T23:42:11.526Z,1.90
2023-03-26T23:45:13.325Z,1.83
2023-03-26T23:48:22.359Z,1.57
2023-03-26T23:51:24.177Z,1.67
2023-03-26T23:54:25.825Z,2.10
2023-03-26T23:57:27.533Z,2.17
